sensor_id;sensor_type;location;lat;lon;timestamp;temperature;humidity
3994;DHT22;2011;48.238;13.948;2023-05-07T00:01:36;14.60;99.90
3994;DHT22;2011;48.238;13.948;2023-05-07T00:04:04;14.60;99.90
3994;DHT22;2011;48.238;13.948;2023-05-07T00:06:32;14.60;99.90
3994;DHT22;2011;48.238;13.948;2023-05-07T00:08:59;14.60;99.90
3994;DHT22;2011;48.238;13.948;2023-05-07T00:11:27;14.60;99.90
3994;DHT22;2011;48.238;13.948;2023-05-07T00:13:54;14.60;99.90
3994;DHT22;2011;48.238;13.948;2023-05-07T00:16:21;14.60;99.90
3994;DHT22;2011;48.238;13.948;2023-05-07T00:18:48;14.60;99.90
3994;DHT22;2011;48.238;13.948;2023-05-07T00:21:17;14.60;99.90
3994;DHT22;2011;48.238;13.948;2023-05-07T00:23:44;14.60;99.90
3994;DHT22;2011;48.238;13.948;2023-05-07T00:26:11;14.50;99.90
3994;DHT22;2011;48.238;13.948;2023-05-07T00:28:38;14.50;99.90
3994;DHT22;2011;48.238;13.948;2023-05-07T00:31:05;14.50;99.90
3994;DHT22;2011;48.238;13.948;2023-05-07T00:33:32;14.50;99.90
3994;DHT22;2011;48.238;13.948;2023-05-07T00:35:59;14.50;99.90
3994;DHT22;2011;48.238;13.948;2023-05-07T00:38:28;14.50;99.90
3994;DHT22;2011;48.238;13.948;2023-05-07T00:40:55;14.50;99.90
3994;DHT22;2011;48.238;13.948;2023-05-07T00:43:22;14.40;99.90
3994;DHT22;2011;48.238;13.948;2023-05-07T00:45:49;14.40;99.90
3994;DHT22;2011;48.238;13.948;2023-05-07T00:48:17;14.40;99.90
3994;DHT22;2011;48.238;13.948;2023-05-07T00:50:44;14.40;99.90
3994;DHT22;2011;48.238;13.948;2023-05-07T00:53:12;14.40;99.90
3994;DHT22;2011;48.238;13.948;2023-05-07T00:55:41;14.30;99.90
3994;DHT22;2011;48.238;13.948;2023-05-07T00:58:08;14.30;99.90
3994;DHT22;2011;48.238;13.948;2023-05-07T01:00:35;14.30;99.90
3994;DHT22;2011;48.238;13.948;2023-05-07T01:03:02;14.20;99.90
3994;DHT22;2011;48.238;13.948;2023-05-07T01:05:29;14.20;99.90
3994;DHT22;2011;48.238;13.948;2023-05-07T01:07:57;14.20;99.90
3994;DHT22;2011;48.238;13.948;2023-05-07T01:10:25;14.20;99.90
3994;DHT22;2011;48.238;13.948;2023-05-07T01:12:54;14.10;99.90
3994;DHT22;2011;48.238;13.948;2023-05-07T01:15:21;14.10;99.90
3994;DHT22;2011;48.238;13.948;2023-05-07T01:17:48;14.10;99.90
3994;DHT22;2011;48.238;13.948;2023-05-07T01:20:15;14.10;99.90
3994;DHT22;2011;48.238;13.948;2023-05-07T01:22:44;14.10;99.90
3994;DHT22;2011;48.238;13.948;2023-05-07T01:25:11;14.10;99.90
3994;DHT22;2011;48.238;13.948;2023-05-07T01:27:39;14.10;99.90
3994;DHT22;2011;48.238;13.948;2023-05-07T01:30:07;14.10;99.90
3994;DHT22;2011;48.238;13.948;2023-05-07T01:32:38;14.00;99.90
3994;DHT22;2011;48.238;13.948;2023-05-07T01:35:11;14.00;99.90
3994;DHT22;2011;48.238;13.948;2023-05-07T01:37:38;14.00;99.90
3994;DHT22;2011;48.238;13.948;2023-05-07T01:40:08;14.00;99.90
3994;DHT22;2011;48.238;13.948;2023-05-07T01:42:36;14.00;99.90
3994;DHT22;2011;48.238;13.948;2023-05-07T01:45:03;13.90;99.90
3994;DHT22;2011;48.238;13.948;2023-05-07T01:47:31;13.90;99.90
3994;DHT22;2011;48.238;13.948;2023-05-07T01:49:58;13.90;99.90
3994;DHT22;2011;48.238;13.948;2023-05-07T01:52:25;13.80;99.90
3994;DHT22;2011;48.238;13.948;2023-05-07T01:54:52;13.80;99.90
3994;DHT22;2011;48.238;13.948;2023-05-07T01:57:20;13.80;99.90
3994;DHT22;2011;48.238;13.948;2023-05-07T01:59:47;13.80;99.90
3994;DHT22;2011;48.238;13.948;2023-05-07T02:02:14;13.80;99.90
3994;DHT22;2011;48.238;13.948;2023-05-07T02:04:41;13.80;99.90
3994;DHT22;2011;48.238;13.948;2023-05-07T02:07:08;13.70;99.90
3994;DHT22;2011;48.238;13.948;2023-05-07T02:09:35;13.70;99.90
3994;DHT22;2011;48.238;13.948;2023-05-07T02:12:03;13.70;99.90
3994;DHT22;2011;48.238;13.948;2023-05-07T02:14:31;13.70;99.90
3994;DHT22;2011;48.238;13.948;2023-05-07T02:16:58;13.70;99.90
3994;DHT22;2011;48.238;13.948;2023-05-07T02:19:25;13.70;99.90
3994;DHT22;2011;48.238;13.948;2023-05-07T02:21:52;13.70;99.90
3994;DHT22;2011;48.238;13.948;2023-05-07T02:24:19;13.70;99.90
3994;DHT22;2011;48.238;13.948;2023-05-07T02:26:47;13.70;99.90
3994;DHT22;2011;48.238;13.948;2023-05-07T02:29:14;13.70;99.90
3994;DHT22;2011;48.238;13.948;2023-05-07T02:31:42;13.70;99.90
3994;DHT22;2011;48.238;13.948;2023-05-07T02:34:09;13.70;99.90
3994;DHT22;2011;48.238;13.948;2023-05-07T02:36:36;13.60;99.90
3994;DHT22;2011;48.238;13.948;2023-05-07T02:39:03;13.60;99.90
3994;DHT22;2011;48.238;13.948;2023-05-07T02:41:30;13.60;99.90
3994;DHT22;2011;48.238;13.948;2023-05-07T02:43:57;13.60;99.90
3994;DHT22;2011;48.238;13.948;2023-05-07T02:46:24;13.60;99.90
3994;DHT22;2011;48.238;13.948;2023-05-07T02:48:53;13.60;99.90
3994;DHT22;2011;48.238;13.948;2023-05-07T02:51:21;13.50;99.90
3994;DHT22;2011;48.238;13.948;2023-05-07T02:53:48;13.50;99.90
3994;DHT22;2011;48.238;13.948;2023-05-07T02:56:15;13.50;99.90
3994;DHT22;2011;48.238;13.948;2023-05-07T02:58:42;13.50;99.90
3994;DHT22;2011;48.238;13.948;2023-05-07T03:01:09;13.60;99.90
3994;DHT22;2011;48.238;13.948;2023-05-07T03:03:37;13.60;99.90
3994;DHT22;2011;48.238;13.948;2023-05-07T03:06:05;13.60;99.90
3994;DHT22;2011;48.238;13.948;2023-05-07T03:08:32;13.60;99.90
3994;DHT22;2011;48.238;13.948;2023-05-07T03:10:59;13.60;99.90
3994;DHT22;2011;48.238;13.948;2023-05-07T03:13:26;13.60;99.90
3994;DHT22;2011;48.238;13.948;2023-05-07T03:15:53;13.60;99.90
3994;DHT22;2011;48.238;13.948;2023-05-07T03:18:20;13.60;99.90
3994;DHT22;2011;48.238;13.948;2023-05-07T03:20:48;13.60;99.90
3994;DHT22;2011;48.238;13.948;2023-05-07T03:23:16;13.60;99.90
3994;DHT22;2011;48.238;13.948;2023-05-07T03:25:43;13.60;99.90
3994;DHT22;2011;48.238;13.948;2023-05-07T03:28:10;13.50;99.90
3994;DHT22;2011;48.238;13.948;2023-05-07T03:30:37;13.50;99.90
3994;DHT22;2011;48.238;13.948;2023-05-07T03:33:04;13.50;99.90
3994;DHT22;2011;48.238;13.948;2023-05-07T03:35:31;13.40;99.90
3994;DHT22;2011;48.238;13.948;2023-05-07T03:37:59;13.40;99.90
3994;DHT22;2011;48.238;13.948;2023-05-07T03:40:28;13.40;99.90
3994;DHT22;2011;48.238;13.948;2023-05-07T03:42:55;13.40;99.90
3994;DHT22;2011;48.238;13.948;2023-05-07T03:45:22;13.30;99.90
3994;DHT22;2011;48.238;13.948;2023-05-07T03:47:49;13.40;99.90
3994;DHT22;2011;48.238;13.948;2023-05-07T03:50:16;13.40;99.90
3994;DHT22;2011;48.238;13.948;2023-05-07T03:52:43;13.40;99.90
3994;DHT22;2011;48.238;13.948;2023-05-07T03:55:10;13.40;99.90
3994;DHT22;2011;48.238;13.948;2023-05-07T03:57:39;13.40;99.90
3994;DHT22;2011;48.238;13.948;2023-05-07T04:00:07;13.50;99.90
3994;DHT22;2011;48.238;13.948;2023-05-07T04:02:48;13.50;99.90
3994;DHT22;2011;48.238;13.948;2023-05-07T04:05:22;13.50;99.90
3994;DHT22;2011;48.238;13.948;2023-05-07T04:07:52;13.50;99.90
3994;DHT22;2011;48.238;13.948;2023-05-07T04:10:19;13.50;99.90
3994;DHT22;2011;48.238;13.948;2023-05-07T04:12:48;13.50;99.90
3994;DHT22;2011;48.238;13.948;2023-05-07T04:15:15;13.50;99.90
3994;DHT22;2011;48.238;13.948;2023-05-07T04:17:42;13.50;99.90
3994;DHT22;2011;48.238;13.948;2023-05-07T04:20:10;13.50;99.90
3994;DHT22;2011;48.238;13.948;2023-05-07T04:22:37;13.50;99.90
3994;DHT22;2011;48.238;13.948;2023-05-07T04:25:05;13.50;99.90
3994;DHT22;2011;48.238;13.948;2023-05-07T04:27:32;13.60;99.90
3994;DHT22;2011;48.238;13.948;2023-05-07T04:30:00;13.60;99.90
3994;DHT22;2011;48.238;13.948;2023-05-07T04:32:28;13.50;99.90
3994;DHT22;2011;48.238;13.948;2023-05-07T04:34:55;13.60;99.90
3994;DHT22;2011;48.238;13.948;2023-05-07T04:37:22;13.60;99.90
3994;DHT22;2011;48.238;13.948;2023-05-07T04:39:49;13.60;99.90
3994;DHT22;2011;48.238;13.948;2023-05-07T04:42:17;13.60;99.90
3994;DHT22;2011;48.238;13.948;2023-05-07T04:44:44;13.60;99.90
3994;DHT22;2011;48.238;13.948;2023-05-07T04:47:13;13.70;99.90
3994;DHT22;2011;48.238;13.948;2023-05-07T04:49:40;13.70;99.90
3994;DHT22;2011;48.238;13.948;2023-05-07T04:52:07;13.70;99.90
3994;DHT22;2011;48.238;13.948;2023-05-07T04:54:34;13.80;99.90
3994;DHT22;2011;48.238;13.948;2023-05-07T04:57:03;13.80;99.90
3994;DHT22;2011;48.238;13.948;2023-05-07T04:59:30;13.90;99.90
3994;DHT22;2011;48.238;13.948;2023-05-07T05:01:57;13.90;99.90
3994;DHT22;2011;48.238;13.948;2023-05-07T05:04:25;13.90;99.90
3994;DHT22;2011;48.238;13.948;2023-05-07T05:06:52;13.90;99.90
3994;DHT22;2011;48.238;13.948;2023-05-07T05:09:19;14.00;99.90
3994;DHT22;2011;48.238;13.948;2023-05-07T05:11:46;14.10;99.90
3994;DHT22;2011;48.238;13.948;2023-05-07T05:14:13;14.20;99.90
3994;DHT22;2011;48.238;13.948;2023-05-07T05:16:40;14.30;99.90
3994;DHT22;2011;48.238;13.948;2023-05-07T05:19:07;14.40;99.90
3994;DHT22;2011;48.238;13.948;2023-05-07T05:21:36;14.50;99.90
3994;DHT22;2011;48.238;13.948;2023-05-07T05:24:03;14.60;99.90
3994;DHT22;2011;48.238;13.948;2023-05-07T05:26:30;14.70;99.90
3994;DHT22;2011;48.238;13.948;2023-05-07T05:28:57;14.80;99.90
3994;DHT22;2011;48.238;13.948;2023-05-07T05:31:24;14.90;99.90
3994;DHT22;2011;48.238;13.948;2023-05-07T05:33:51;15.00;99.90
3994;DHT22;2011;48.238;13.948;2023-05-07T05:36:18;15.10;99.90
3994;DHT22;2011;48.238;13.948;2023-05-07T05:38:47;15.10;99.90
3994;DHT22;2011;48.238;13.948;2023-05-07T05:41:14;15.10;99.90
3994;DHT22;2011;48.238;13.948;2023-05-07T05:43:41;15.20;99.90
3994;DHT22;2011;48.238;13.948;2023-05-07T05:46:08;15.20;99.90
3994;DHT22;2011;48.238;13.948;2023-05-07T05:48:37;15.30;99.90
3994;DHT22;2011;48.238;13.948;2023-05-07T05:51:04;15.20;99.90
3994;DHT22;2011;48.238;13.948;2023-05-07T05:53:31;15.20;99.90
3994;DHT22;2011;48.238;13.948;2023-05-07T05:56:00;15.20;99.90
3994;DHT22;2011;48.238;13.948;2023-05-07T05:58:27;15.20;99.90
3994;DHT22;2011;48.238;13.948;2023-05-07T06:00:54;15.30;99.90
3994;DHT22;2011;48.238;13.948;2023-05-07T06:03:21;15.40;99.90
3994;DHT22;2011;48.238;13.948;2023-05-07T06:05:48;15.60;99.90
3994;DHT22;2011;48.238;13.948;2023-05-07T06:08:16;15.70;99.90
3994;DHT22;2011;48.238;13.948;2023-05-07T06:10:43;15.80;99.90
3994;DHT22;2011;48.238;13.948;2023-05-07T06:13:11;15.90;99.90
3994;DHT22;2011;48.238;13.948;2023-05-07T06:15:38;16.00;99.90
3994;DHT22;2011;48.238;13.948;2023-05-07T06:18:05;16.20;99.90
3994;DHT22;2011;48.238;13.948;2023-05-07T06:20:32;16.30;99.90
3994;DHT22;2011;48.238;13.948;2023-05-07T06:22:59;16.40;99.90
3994;DHT22;2011;48.238;13.948;2023-05-07T06:25:26;16.40;99.90
3994;DHT22;2011;48.238;13.948;2023-05-07T06:27:53;16.50;99.90
3994;DHT22;2011;48.238;13.948;2023-05-07T06:30:22;16.70;99.90
3994;DHT22;2011;48.238;13.948;2023-05-07T06:32:48;16.80;99.90
3994;DHT22;2011;48.238;13.948;2023-05-07T06:35:15;16.80;99.90
3994;DHT22;2011;48.238;13.948;2023-05-07T06:37:43;16.80;99.90
3994;DHT22;2011;48.238;13.948;2023-05-07T06:40:11;16.80;99.90
3994;DHT22;2011;48.238;13.948;2023-05-07T06:42:38;16.90;99.90
3994;DHT22;2011;48.238;13.948;2023-05-07T06:45:06;16.90;99.90
3994;DHT22;2011;48.238;13.948;2023-05-07T06:47:35;17.10;99.90
3994;DHT22;2011;48.238;13.948;2023-05-07T06:50:02;17.20;99.90
3994;DHT22;2011;48.238;13.948;2023-05-07T06:52:29;17.30;99.90
3994;DHT22;2011;48.238;13.948;2023-05-07T06:54:56;17.30;99.90
3994;DHT22;2011;48.238;13.948;2023-05-07T06:57:24;17.40;99.90
3994;DHT22;2011;48.238;13.948;2023-05-07T06:59:51;17.40;99.90
3994;DHT22;2011;48.238;13.948;2023-05-07T07:02:18;17.50;99.90
3994;DHT22;2011;48.238;13.948;2023-05-07T07:04:47;17.70;99.90
3994;DHT22;2011;48.238;13.948;2023-05-07T07:07:13;17.80;99.90
3994;DHT22;2011;48.238;13.948;2023-05-07T07:09:41;18.00;99.90
3994;DHT22;2011;48.238;13.948;2023-05-07T07:12:08;18.00;99.90
3994;DHT22;2011;48.238;13.948;2023-05-07T07:14:35;17.90;99.90
3994;DHT22;2011;48.238;13.948;2023-05-07T07:17:02;18.00;99.90
3994;DHT22;2011;48.238;13.948;2023-05-07T07:19:30;18.00;99.90
3994;DHT22;2011;48.238;13.948;2023-05-07T07:21:59;18.10;99.90
3994;DHT22;2011;48.238;13.948;2023-05-07T07:24:26;18.20;99.90
3994;DHT22;2011;48.238;13.948;2023-05-07T07:26:53;18.30;99.90
3994;DHT22;2011;48.238;13.948;2023-05-07T07:29:21;18.40;99.90
3994;DHT22;2011;48.238;13.948;2023-05-07T07:31:48;18.40;99.90
3994;DHT22;2011;48.238;13.948;2023-05-07T07:34:15;18.40;99.90
3994;DHT22;2011;48.238;13.948;2023-05-07T07:36:42;18.50;99.90
3994;DHT22;2011;48.238;13.948;2023-05-07T07:39:11;18.50;99.90
3994;DHT22;2011;48.238;13.948;2023-05-07T07:41:37;18.50;99.90
3994;DHT22;2011;48.238;13.948;2023-05-07T07:44:05;18.60;99.90
3994;DHT22;2011;48.238;13.948;2023-05-07T07:46:33;18.70;99.90
3994;DHT22;2011;48.238;13.948;2023-05-07T07:49:00;18.80;99.90
3994;DHT22;2011;48.238;13.948;2023-05-07T07:51:27;18.90;99.90
3994;DHT22;2011;48.238;13.948;2023-05-07T07:53:54;19.00;99.90
3994;DHT22;2011;48.238;13.948;2023-05-07T07:56:24;19.10;99.90
3994;DHT22;2011;48.238;13.948;2023-05-07T07:58:52;19.20;99.90
3994;DHT22;2011;48.238;13.948;2023-05-07T08:01:18;19.20;99.90
3994;DHT22;2011;48.238;13.948;2023-05-07T08:03:46;19.20;99.90
3994;DHT22;2011;48.238;13.948;2023-05-07T08:06:13;19.30;99.90
3994;DHT22;2011;48.238;13.948;2023-05-07T08:08:40;19.40;99.90
3994;DHT22;2011;48.238;13.948;2023-05-07T08:11:07;19.50;99.90
3994;DHT22;2011;48.238;13.948;2023-05-07T08:13:36;19.50;99.90
3994;DHT22;2011;48.238;13.948;2023-05-07T08:16:03;19.50;99.90
3994;DHT22;2011;48.238;13.948;2023-05-07T08:18:30;19.60;99.90
3994;DHT22;2011;48.238;13.948;2023-05-07T08:20:57;19.60;99.90
3994;DHT22;2011;48.238;13.948;2023-05-07T08:23:24;19.60;99.90
3994;DHT22;2011;48.238;13.948;2023-05-07T08:25:51;19.70;99.90
3994;DHT22;2011;48.238;13.948;2023-05-07T08:28:18;19.80;99.90
3994;DHT22;2011;48.238;13.948;2023-05-07T08:30:48;19.90;99.90
3994;DHT22;2011;48.238;13.948;2023-05-07T08:33:15;19.90;99.90
3994;DHT22;2011;48.238;13.948;2023-05-07T08:35:42;20.00;99.90
3994;DHT22;2011;48.238;13.948;2023-05-07T08:38:09;20.10;99.90
3994;DHT22;2011;48.238;13.948;2023-05-07T08:40:37;20.10;99.70
3994;DHT22;2011;48.238;13.948;2023-05-07T08:43:06;20.20;99.70
3994;DHT22;2011;48.238;13.948;2023-05-07T08:45:34;20.30;99.70
3994;DHT22;2011;48.238;13.948;2023-05-07T08:48:16;20.40;99.90
3994;DHT22;2011;48.238;13.948;2023-05-07T08:50:43;20.50;99.90
3994;DHT22;2011;48.238;13.948;2023-05-07T08:53:10;20.60;99.90
3994;DHT22;2011;48.238;13.948;2023-05-07T08:55:37;20.70;99.90
3994;DHT22;2011;48.238;13.948;2023-05-07T08:58:04;20.80;99.40
3994;DHT22;2011;48.238;13.948;2023-05-07T09:00:31;20.80;99.00
3994;DHT22;2011;48.238;13.948;2023-05-07T09:02:59;20.90;99.30
3994;DHT22;2011;48.238;13.948;2023-05-07T09:05:28;21.00;99.00
3994;DHT22;2011;48.238;13.948;2023-05-07T09:07:55;21.10;98.90
3994;DHT22;2011;48.238;13.948;2023-05-07T09:10:25;21.00;98.20
3994;DHT22;2011;48.238;13.948;2023-05-07T09:12:52;21.00;98.10
3994;DHT22;2011;48.238;13.948;2023-05-07T09:15:20;21.00;97.90
3994;DHT22;2011;48.238;13.948;2023-05-07T09:17:47;21.10;97.60
3994;DHT22;2011;48.238;13.948;2023-05-07T09:20:14;21.10;97.40
3994;DHT22;2011;48.238;13.948;2023-05-07T09:22:44;21.20;97.40
3994;DHT22;2011;48.238;13.948;2023-05-07T09:25:11;21.10;97.10
3994;DHT22;2011;48.238;13.948;2023-05-07T09:27:38;21.20;97.10
3994;DHT22;2011;48.238;13.948;2023-05-07T09:30:06;21.10;96.60
3994;DHT22;2011;48.238;13.948;2023-05-07T09:32:35;21.20;97.10
3994;DHT22;2011;48.238;13.948;2023-05-07T09:35:04;21.30;97.30
3994;DHT22;2011;48.238;13.948;2023-05-07T09:37:31;21.50;97.00
3994;DHT22;2011;48.238;13.948;2023-05-07T09:40:00;21.60;96.90
3994;DHT22;2011;48.238;13.948;2023-05-07T09:42:27;21.70;96.90
3994;DHT22;2011;48.238;13.948;2023-05-07T09:44:54;21.80;96.60
3994;DHT22;2011;48.238;13.948;2023-05-07T09:47:24;21.80;96.20
3994;DHT22;2011;48.238;13.948;2023-05-07T09:49:55;21.90;95.90
3994;DHT22;2011;48.238;13.948;2023-05-07T09:52:22;21.90;96.00
3994;DHT22;2011;48.238;13.948;2023-05-07T09:54:50;22.00;96.00
3994;DHT22;2011;48.238;13.948;2023-05-07T09:57:20;22.10;96.20
3994;DHT22;2011;48.238;13.948;2023-05-07T09:59:49;22.20;95.90
3994;DHT22;2011;48.238;13.948;2023-05-07T10:02:17;22.30;96.00
3994;DHT22;2011;48.238;13.948;2023-05-07T10:04:44;22.40;95.70
3994;DHT22;2011;48.238;13.948;2023-05-07T10:07:13;22.40;95.30
3994;DHT22;2011;48.238;13.948;2023-05-07T10:09:40;22.50;95.70
3994;DHT22;2011;48.238;13.948;2023-05-07T10:12:09;22.50;95.30
3994;DHT22;2011;48.238;13.948;2023-05-07T10:14:38;22.50;94.20
3994;DHT22;2011;48.238;13.948;2023-05-07T10:17:06;22.50;94.60
3994;DHT22;2011;48.238;13.948;2023-05-07T10:19:34;22.60;94.90
3994;DHT22;2011;48.238;13.948;2023-05-07T10:22:05;22.70;94.70
3994;DHT22;2011;48.238;13.948;2023-05-07T10:24:33;22.80;95.20
3994;DHT22;2011;48.238;13.948;2023-05-07T10:27:02;22.80;95.10
3994;DHT22;2011;48.238;13.948;2023-05-07T10:29:35;22.90;94.80
3994;DHT22;2011;48.238;13.948;2023-05-07T10:32:38;23.00;94.90
3994;DHT22;2011;48.238;13.948;2023-05-07T10:35:10;23.20;95.40
3994;DHT22;2011;48.238;13.948;2023-05-07T10:37:41;23.30;94.70
3994;DHT22;2011;48.238;13.948;2023-05-07T10:40:10;23.40;94.30
3994;DHT22;2011;48.238;13.948;2023-05-07T10:42:37;23.50;94.40
3994;DHT22;2011;48.238;13.948;2023-05-07T10:45:14;23.50;93.40
3994;DHT22;2011;48.238;13.948;2023-05-07T10:48:08;23.50;93.10
3994;DHT22;2011;48.238;13.948;2023-05-07T10:50:35;23.50;92.80
3994;DHT22;2011;48.238;13.948;2023-05-07T10:53:22;23.60;93.20
3994;DHT22;2011;48.238;13.948;2023-05-07T10:56:24;23.70;92.10
3994;DHT22;2011;48.238;13.948;2023-05-07T10:58:53;23.70;91.50
3994;DHT22;2011;48.238;13.948;2023-05-07T11:01:50;23.70;91.70
3994;DHT22;2011;48.238;13.948;2023-05-07T11:04:19;23.80;91.60
3994;DHT22;2011;48.238;13.948;2023-05-07T11:07:26;23.90;92.20
3994;DHT22;2011;48.238;13.948;2023-05-07T11:10:01;24.00;91.90
3994;DHT22;2011;48.238;13.948;2023-05-07T11:12:51;24.00;91.00
3994;DHT22;2011;48.238;13.948;2023-05-07T11:15:40;24.00;91.40
3994;DHT22;2011;48.238;13.948;2023-05-07T11:18:10;24.20;91.90
3994;DHT22;2011;48.238;13.948;2023-05-07T11:20:52;24.20;90.90
3994;DHT22;2011;48.238;13.948;2023-05-07T11:23:57;24.20;90.30
3994;DHT22;2011;48.238;13.948;2023-05-07T11:26:26;24.30;88.80
3994;DHT22;2011;48.238;13.948;2023-05-07T11:28:54;24.40;90.00
3994;DHT22;2011;48.238;13.948;2023-05-07T11:31:24;24.60;90.60
3994;DHT22;2011;48.238;13.948;2023-05-07T11:33:52;24.60;89.50
3994;DHT22;2011;48.238;13.948;2023-05-07T11:36:22;24.60;89.60
3994;DHT22;2011;48.238;13.948;2023-05-07T11:38:49;24.70;90.00
3994;DHT22;2011;48.238;13.948;2023-05-07T11:41:16;24.80;88.00
3994;DHT22;2011;48.238;13.948;2023-05-07T11:43:58;24.80;86.50
3994;DHT22;2011;48.238;13.948;2023-05-07T11:46:27;24.80;84.90
3994;DHT22;2011;48.238;13.948;2023-05-07T11:48:54;24.90;85.30
3994;DHT22;2011;48.238;13.948;2023-05-07T11:51:24;24.90;86.20
3994;DHT22;2011;48.238;13.948;2023-05-07T11:53:53;24.90;86.50
3994;DHT22;2011;48.238;13.948;2023-05-07T11:56:20;24.90;84.70
3994;DHT22;2011;48.238;13.948;2023-05-07T11:58:48;25.00;85.00
3994;DHT22;2011;48.238;13.948;2023-05-07T12:01:16;25.10;84.30
3994;DHT22;2011;48.238;13.948;2023-05-07T12:03:45;25.20;86.00
3994;DHT22;2011;48.238;13.948;2023-05-07T12:06:14;25.20;84.70
3994;DHT22;2011;48.238;13.948;2023-05-07T12:08:43;25.30;84.20
3994;DHT22;2011;48.238;13.948;2023-05-07T12:11:14;25.30;84.10
3994;DHT22;2011;48.238;13.948;2023-05-07T12:13:43;25.30;81.90
3994;DHT22;2011;48.238;13.948;2023-05-07T12:16:10;25.40;82.60
3994;DHT22;2011;48.238;13.948;2023-05-07T12:18:37;25.40;81.90
3994;DHT22;2011;48.238;13.948;2023-05-07T12:21:06;25.30;81.20
3994;DHT22;2011;48.238;13.948;2023-05-07T12:23:34;25.30;81.30
3994;DHT22;2011;48.238;13.948;2023-05-07T12:26:03;25.30;81.30
3994;DHT22;2011;48.238;13.948;2023-05-07T12:28:32;25.40;81.20
3994;DHT22;2011;48.238;13.948;2023-05-07T12:31:03;25.50;80.20
3994;DHT22;2011;48.238;13.948;2023-05-07T12:33:31;25.60;81.20
3994;DHT22;2011;48.238;13.948;2023-05-07T12:36:00;25.70;81.20
3994;DHT22;2011;48.238;13.948;2023-05-07T12:38:35;25.90;82.10
3994;DHT22;2011;48.238;13.948;2023-05-07T12:41:04;25.90;79.80
3994;DHT22;2011;48.238;13.948;2023-05-07T12:43:32;25.90;79.00
3994;DHT22;2011;48.238;13.948;2023-05-07T12:46:01;25.90;78.20
3994;DHT22;2011;48.238;13.948;2023-05-07T12:48:30;25.90;75.90
3994;DHT22;2011;48.238;13.948;2023-05-07T12:50:59;26.00;75.60
3994;DHT22;2011;48.238;13.948;2023-05-07T12:53:27;26.00;75.80
3994;DHT22;2011;48.238;13.948;2023-05-07T12:55:55;26.00;74.00
3994;DHT22;2011;48.238;13.948;2023-05-07T12:58:26;26.10;75.80
3994;DHT22;2011;48.238;13.948;2023-05-07T13:00:54;26.20;75.40
3994;DHT22;2011;48.238;13.948;2023-05-07T13:03:25;26.40;75.10
3994;DHT22;2011;48.238;13.948;2023-05-07T13:05:53;26.50;77.90
3994;DHT22;2011;48.238;13.948;2023-05-07T13:08:25;26.60;76.50
3994;DHT22;2011;48.238;13.948;2023-05-07T13:10:52;26.60;75.10
3994;DHT22;2011;48.238;13.948;2023-05-07T13:13:19;26.60;74.90
3994;DHT22;2011;48.238;13.948;2023-05-07T13:15:48;26.70;76.10
3994;DHT22;2011;48.238;13.948;2023-05-07T13:18:15;26.70;75.90
3994;DHT22;2011;48.238;13.948;2023-05-07T13:20:42;26.70;74.30
3994;DHT22;2011;48.238;13.948;2023-05-07T13:23:09;26.80;75.00
3994;DHT22;2011;48.238;13.948;2023-05-07T13:25:36;26.90;72.70
3994;DHT22;2011;48.238;13.948;2023-05-07T13:28:04;27.00;74.30
3994;DHT22;2011;48.238;13.948;2023-05-07T13:30:31;27.00;74.50
3994;DHT22;2011;48.238;13.948;2023-05-07T13:32:59;27.00;72.70
3994;DHT22;2011;48.238;13.948;2023-05-07T13:35:26;27.10;72.70
3994;DHT22;2011;48.238;13.948;2023-05-07T13:37:53;27.10;72.80
3994;DHT22;2011;48.238;13.948;2023-05-07T13:40:21;27.00;71.90
3994;DHT22;2011;48.238;13.948;2023-05-07T13:42:48;27.00;71.70
3994;DHT22;2011;48.238;13.948;2023-05-07T13:45:16;26.80;73.10
3994;DHT22;2011;48.238;13.948;2023-05-07T13:47:43;26.90;73.80
3994;DHT22;2011;48.238;13.948;2023-05-07T13:50:12;26.90;73.10
3994;DHT22;2011;48.238;13.948;2023-05-07T13:52:41;26.80;73.30
3994;DHT22;2011;48.238;13.948;2023-05-07T13:55:11;26.60;74.90
3994;DHT22;2011;48.238;13.948;2023-05-07T13:57:39;26.30;76.00
3994;DHT22;2011;48.238;13.948;2023-05-07T14:00:07;26.00;75.40
3994;DHT22;2011;48.238;13.948;2023-05-07T14:02:34;25.70;75.00
3994;DHT22;2011;48.238;13.948;2023-05-07T14:05:01;25.40;74.70
3994;DHT22;2011;48.238;13.948;2023-05-07T14:07:30;25.20;75.50
3994;DHT22;2011;48.238;13.948;2023-05-07T14:09:57;25.30;76.00
3994;DHT22;2011;48.238;13.948;2023-05-07T14:12:25;25.50;77.70
3994;DHT22;2011;48.238;13.948;2023-05-07T14:14:52;25.70;76.50
3994;DHT22;2011;48.238;13.948;2023-05-07T14:17:19;25.70;75.40
3994;DHT22;2011;48.238;13.948;2023-05-07T14:19:48;25.70;75.30
3994;DHT22;2011;48.238;13.948;2023-05-07T14:22:15;25.60;74.10
3994;DHT22;2011;48.238;13.948;2023-05-07T14:24:44;25.70;74.70
3994;DHT22;2011;48.238;13.948;2023-05-07T14:27:11;25.80;73.80
3994;DHT22;2011;48.238;13.948;2023-05-07T14:29:38;25.70;72.70
3994;DHT22;2011;48.238;13.948;2023-05-07T14:32:05;25.80;74.10
3994;DHT22;2011;48.238;13.948;2023-05-07T14:34:32;25.90;72.60
3994;DHT22;2011;48.238;13.948;2023-05-07T14:37:00;25.90;72.20
3994;DHT22;2011;48.238;13.948;2023-05-07T14:39:27;25.80;73.70
3994;DHT22;2011;48.238;13.948;2023-05-07T14:41:55;25.70;73.40
3994;DHT22;2011;48.238;13.948;2023-05-07T14:44:23;25.60;73.40
3994;DHT22;2011;48.238;13.948;2023-05-07T14:46:50;25.40;75.10
3994;DHT22;2011;48.238;13.948;2023-05-07T14:49:17;25.10;75.50
3994;DHT22;2011;48.238;13.948;2023-05-07T14:51:45;24.90;75.40
3994;DHT22;2011;48.238;13.948;2023-05-07T14:54:12;24.80;75.60
3994;DHT22;2011;48.238;13.948;2023-05-07T14:56:40;24.70;74.90
3994;DHT22;2011;48.238;13.948;2023-05-07T14:59:08;24.60;74.90
3994;DHT22;2011;48.238;13.948;2023-05-07T15:01:36;24.50;75.70
3994;DHT22;2011;48.238;13.948;2023-05-07T15:04:03;24.50;76.90
3994;DHT22;2011;48.238;13.948;2023-05-07T15:06:31;24.50;76.30
3994;DHT22;2011;48.238;13.948;2023-05-07T15:08:58;24.50;77.30
3994;DHT22;2011;48.238;13.948;2023-05-07T15:11:26;24.40;76.70
3994;DHT22;2011;48.238;13.948;2023-05-07T15:13:54;24.30;77.30
3994;DHT22;2011;48.238;13.948;2023-05-07T15:16:22;24.40;76.70
3994;DHT22;2011;48.238;13.948;2023-05-07T15:18:49;24.40;78.10
3994;DHT22;2011;48.238;13.948;2023-05-07T15:21:16;24.40;77.50
3994;DHT22;2011;48.238;13.948;2023-05-07T15:23:43;24.30;77.80
3994;DHT22;2011;48.238;13.948;2023-05-07T15:26:11;24.20;78.90
3994;DHT22;2011;48.238;13.948;2023-05-07T15:28:38;24.10;78.90
3994;DHT22;2011;48.238;13.948;2023-05-07T15:31:06;24.00;79.00
3994;DHT22;2011;48.238;13.948;2023-05-07T15:33:34;23.80;79.10
3994;DHT22;2011;48.238;13.948;2023-05-07T15:36:02;23.70;79.70
3994;DHT22;2011;48.238;13.948;2023-05-07T15:38:29;23.40;81.00
3994;DHT22;2011;48.238;13.948;2023-05-07T15:40:56;23.40;81.50
3994;DHT22;2011;48.238;13.948;2023-05-07T15:43:23;23.30;81.40
3994;DHT22;2011;48.238;13.948;2023-05-07T15:45:51;23.20;81.10
3994;DHT22;2011;48.238;13.948;2023-05-07T15:48:18;23.20;82.30
3994;DHT22;2011;48.238;13.948;2023-05-07T15:50:47;23.00;82.30
3994;DHT22;2011;48.238;13.948;2023-05-07T15:53:14;23.00;81.80